Time;durP1;ratioP1;P1;durP2;ratioP2;P2;SDS_P1;SDS_P2;PMS_P1;PMS_P2;Temp;Humidity;BMP_temperature;BMP_pressure;BME280_temperature;BME280_humidity;BME280_pressure;Samples;Min_cycle;Max_cycle;Signal;HPM_P1;HPM_P2
2022/06/03 00:01:09;;;;;;;7.10;3.95;;;;;;;;;;4953145;28;20047;-81
2022/06/03 00:03:59;;;;;;;6.70;3.65;;;;;;;;;;4953255;28;20139;-81
2022/06/03 00:06:34;;;;;;;4.80;4.30;;;;;;;;;;4953487;29;20050;-82
2022/06/03 00:09:00;;;;;;;4.35;3.90;;;;;;;;;;4953411;29;20070;-81
2022/06/03 00:11:41;;;;;;;7.03;4.55;;;;;;;;;;4953178;29;20048;-81
2022/06/03 00:14:55;;;;;;;6.60;3.50;;;10.40;99.90;;;;;;4953102;29;20074;-81
2022/06/03 00:17:33;;;;;;;4.73;3.67;;;;;;;;;;4921207;29;20055;-82
2022/06/03 00:20:03;;;;;;;4.20;3.63;;;;;;;;;;4937006;29;20047;-81
2022/06/03 00:22:39;;;;;;;5.18;3.50;;;;;;;;;;4937089;29;20142;-83
2022/06/03 00:25:35;;;;;;;6.28;3.67;;;10.40;99.90;;;;;;4937314;29;20420;-82
2022/06/03 00:28:01;;;;;;;7.40;4.32;;;;;;;;;;4920879;29;20552;-85
2022/06/03 00:30:32;;;;;;;6.60;4.55;;;;;;;;;;4921314;29;20047;-81
2022/06/03 00:33:07;;;;;;;13.50;4.30;;;;;;;;;;4920833;29;20102;-81
2022/06/03 00:35:33;;;;;;;7.07;4.22;;;;;;;;;;4973368;28;20109;-82
2022/06/03 00:38:04;;;;;;;8.60;4.97;;;10.30;99.90;;;;;;5014436;28;20045;-83
2022/06/03 00:40:31;;;;;;;9.93;4.97;;;;;;;;;;4998177;28;20063;-82
2022/06/03 00:43:15;;;;;;;6.75;5.03;;;;;;;;;;4998006;28;20139;-84
2022/06/03 00:45:57;;;;;;;7.38;4.93;;;;;;;;;;5014246;28;20045;-82
2022/06/03 00:48:32;;;;;;;7.07;4.97;;;;;;;;;;4997932;28;20053;-84
2022/06/03 00:51:01;;;;;;;5.45;4.90;;;;;;;;;;5014643;28;20484;-83
2022/06/03 00:53:59;;;;;;;7.78;5.32;;;10.50;99.90;;;;;;5015573;28;20139;-84
2022/06/03 00:56:25;;;;;;;6.78;4.60;;;;;;;;;;5014347;28;20057;-82
2022/06/03 00:58:51;;;;;;;5.70;4.75;;;;;;;;;;5014252;28;20049;-82
2022/06/03 01:01:34;;;;;;;8.02;5.07;;;;;;;;;;4997673;28;20111;-85
2022/06/03 01:04:35;;;;;;;7.13;4.82;;;10.70;99.90;;;;;;5014172;28;20055;-85
2022/06/03 01:07:28;;;;;;;5.57;4.25;;;10.30;99.90;;;;;;4993770;28;20517;-82
2022/06/03 01:10:03;;;;;;;8.38;4.53;;;;;;;;;;5014141;28;20041;-82
2022/06/03 01:12:54;;;;;;;7.80;4.22;;;10.30;99.90;;;;;;4997789;28;20052;-84
2022/06/03 01:15:28;;;;;;;6.78;5.07;;;;;;;;;;5001036;28;20098;-83
2022/06/03 01:18:06;;;;;;;8.32;5.00;;;;;;;;;;5017664;28;20037;-85
2022/06/03 01:20:44;;;;;;;5.55;4.28;;;;;;;;;;5034087;28;20077;-86
2022/06/03 01:23:10;;;;;;;4.60;4.10;;;;;;;;;;5034586;28;20080;-85
2022/06/03 01:25:42;;;;;;;6.07;4.32;;;;;;;;;;5033976;28;20069;-84
2022/06/03 01:28:11;;;;;;;8.20;4.60;;;;;;;;;;5034016;28;20124;-84
2022/06/03 01:30:55;;;;;;;6.22;4.22;;;;;;;;;;5001928;28;20034;-81
2022/06/03 01:33:30;;;;;;;;;;;10.00;99.90;;;;;;5040182;28;20420;-81
2022/06/03 01:36:07;;;;;;;;;;;9.90;99.90;;;;;;5055123;28;19967;-81
2022/06/03 01:38:36;;;;;;;6.88;4.30;;;;;;;;;;5056104;28;19920;-81
2022/06/03 01:41:21;;;;;;;6.95;4.78;;;9.70;99.90;;;;;;5038478;28;20041;-81
2022/06/03 01:43:53;;;;;;;11.25;5.55;;;;;;;;;;5054556;28;20512;-81
2022/06/03 01:46:19;;;;;;;12.25;5.10;;;;;;;;;;5054421;28;20095;-81
2022/06/03 01:48:52;;;;;;;7.45;5.07;;;9.80;99.90;;;;;;5037770;28;20092;-81
2022/06/03 01:51:37;;;;;;;5.15;4.53;;;9.70;99.90;;;;;;5054320;28;20041;-81
2022/06/03 01:54:41;;;;;;;11.05;4.78;;;9.60;99.90;;;;;;5054274;28;20048;-81
2022/06/03 01:57:25;;;;;;;6.22;5.35;;;;;;;;;;5054849;28;20055;-81
2022/06/03 02:00:30;;;;;;;8.73;5.40;;;9.80;99.90;;;;;;5037857;28;20087;-81
2022/06/03 02:03:02;;;;;;;7.30;5.20;;;;;;;;;;5016704;28;20045;-81
2022/06/03 02:05:28;;;;;;;8.35;6.80;;;;;;;;;;5000588;28;20049;-81
2022/06/03 02:08:06;;;;;;;13.25;6.18;;;9.70;99.90;;;;;;5017817;28;20103;-81
2022/06/03 02:10:51;;;;;;;9.73;6.15;;;9.60;99.90;;;;;;5016695;28;20137;-81
2022/06/03 02:13:53;;;;;;;9.57;5.75;;;9.90;99.90;;;;;;5017460;28;20052;-81
2022/06/03 02:16:40;;;;;;;12.82;6.47;;;9.80;99.90;;;;;;5016624;28;20049;-81
2022/06/03 02:19:37;;;;;;;8.20;5.95;;;9.80;99.90;;;;;;5016673;28;20176;-81
2022/06/03 02:22:06;;;;;;;6.47;5.43;;;;;;;;;;5016519;28;20129;-81
2022/06/03 02:24:43;;;;;;;9.20;6.53;;;;;;;;;;5000289;28;20061;-81
2022/06/03 02:27:18;;;;;;;7.20;6.45;;;;;;;;;;5016060;28;20516;-81
2022/06/03 02:33:14;;;;;;;9.02;6.28;;;9.70;99.90;;;;;;5016232;28;20116;-81
2022/06/03 02:36:01;;;;;;;10.02;6.10;;;;;;;;;;5016398;28;20084;-84
2022/06/03 02:38:27;;;;;;;6.88;5.63;;;;;;;;;;5037148;28;20076;-83
2022/06/03 02:40:56;;;;;;;6.43;5.22;;;;;;;;;;5054232;28;20507;-84
2022/06/03 02:43:57;;;;;;;7.60;4.22;;;9.70;99.90;;;;;;5036675;28;20571;-84
2022/06/03 02:46:36;;;;;;;6.45;5.07;;;;;;;;;;5036783;28;20072;-82
2022/06/03 02:49:02;;;;;;;9.43;5.32;;;;;;;;;;5036792;28;20103;-83
2022/06/03 02:51:34;;;;;;;7.10;4.70;;;;;;;;;;5036536;28;20048;-82
2022/06/03 02:54:39;;;;;;;6.32;5.63;;;9.50;99.90;;;;;;5054492;28;20076;-84
2022/06/03 02:57:08;;;;;;;4.13;3.72;;;;;;;;;;5029622;28;20057;-84
2022/06/03 02:59:49;;;;;;;3.53;3.15;;;;;;;;;;5036507;28;20192;-83
2022/06/03 03:03:00;;;;;;;3.35;3.08;;;9.40;99.90;;;;;;5052870;28;20057;-83
2022/06/03 03:06:03;;;;;;;3.28;2.65;;;9.40;99.90;;;;;;5021182;28;20059;-84
2022/06/03 03:08:41;;;;;;;4.82;4.15;;;;;;;;;;5036339;28;20140;-83
2022/06/03 03:11:27;;;;;;;9.48;5.63;;;9.00;99.90;;;;;;5036052;28;20052;-83
2022/06/03 03:13:56;;;;;;;10.57;6.85;;;;;;;;;;5052724;28;20055;-84
2022/06/03 03:16:25;;;;;;;8.60;5.22;;;;;;;;;;5052869;28;20045;-82
2022/06/03 03:19:11;;;;;;;7.72;6.13;;;;;;;;;;5037470;28;20045;-83
2022/06/03 03:21:43;;;;;;;6.93;5.72;;;;;;;;;;5015310;28;20553;-84
2022/06/03 03:24:36;;;;;;;6.75;5.38;;;8.80;99.90;;;;;;4999171;28;20103;-83
2022/06/03 03:27:08;;;;;;;7.43;5.30;;;;;;;;;;5015303;28;20233;-85
2022/06/03 03:29:34;;;;;;;8.35;5.97;;;;;;;;;;4998863;28;20124;-86
2022/06/03 03:32:07;;;;;;;5.88;4.78;;;8.90;99.90;;;;;;4998553;28;20140;-82
2022/06/03 03:34:45;;;;;;;6.38;4.72;;;;;;;;;;5015053;28;20056;-82
2022/06/03 03:37:37;;;;;;;4.63;4.10;;;9.00;99.90;;;;;;4998638;28;20052;-81
2022/06/03 03:40:40;;;;;;;6.93;5.15;;;9.00;99.90;;;;;;5015444;28;20180;-85
2022/06/03 03:43:43;;;;;;;11.20;5.68;;;9.00;99.90;;;;;;5014881;28;20088;-85
2022/06/03 03:46:21;;;;;;;10.60;6.32;;;;;;;;;;5014856;28;20200;-82
2022/06/03 03:48:55;;;;;;;9.57;5.72;;;;;;;;;;5015211;28;20087;-84
2022/06/03 03:51:26;;;;;;;7.47;6.68;;;;;;;;;;5015027;28;20050;-82
2022/06/03 03:53:59;;;;;;;9.90;7.10;;;;;;;;;;5014754;28;20041;-83
2022/06/03 03:56:25;;;;;;;9.45;7.25;;;;;;;;;;5031500;28;20081;-82
2022/06/03 03:59:16;;;;;;;9.43;6.82;;;9.00;99.90;;;;;;5034605;28;20131;-84
2022/06/03 04:01:54;;;;;;;9.52;7.35;;;;;;;;;;5054090;28;20049;-83
2022/06/03 04:04:32;;;;;;;8.40;6.32;;;;;;;;;;5052991;28;20044;-83
2022/06/03 04:07:17;;;;;;;8.93;6.47;;;;;;;;;;5036916;28;20053;-84
2022/06/03 04:10:01;;;;;;;;;;;9.30;99.90;;;;;;5053033;28;20048;-84
2022/06/03 04:12:30;;;;;;;6.63;4.22;;;;;;;;;;5036480;28;20053;-85
2022/06/03 04:15:05;;;;;;;5.72;4.57;;;;;;;;;;5037641;28;20477;-83
2022/06/03 04:17:50;;;;;;;8.05;5.85;;;;;;;;;;5035869;28;20048;-85
2022/06/03 04:20:31;;;;;;;7.72;5.90;;;;;;;;;;5036172;28;20049;-83
2022/06/03 04:23:14;;;;;;;12.98;6.20;;;9.40;99.90;;;;;;5035483;28;20048;-84
2022/06/03 04:26:22;;;;;;;8.32;6.00;;;9.50;99.90;;;;;;5051574;28;20568;-82
2022/06/03 04:28:57;;;;;;;12.48;6.90;;;;;;;;;;5029728;28;20096;-85
2022/06/03 04:31:23;;;;;;;9.73;6.07;;;;;;;;;;5034872;28;20052;-85
2022/06/03 04:34:05;;;;;;;7.40;6.60;;;;;;;;;;5035066;28;20048;-85
2022/06/03 04:36:40;;;;;;;9.05;6.85;;;;;;;;;;5035047;28;20045;-82
2022/06/03 04:39:49;;;;;;;9.63;6.57;;;9.80;99.90;;;;;;5051830;28;20051;-84
2022/06/03 04:42:21;;;;;;;8.80;7.07;;;;;;;;;;5035853;28;20053;-83
2022/06/03 04:45:06;;;;;;;7.97;6.35;;;;;;;;;;5051583;28;20139;-85
2022/06/03 04:47:51;;;;;;;10.52;6.05;;;;;;;;;;5034880;28;20041;-84
2022/06/03 04:50:29;;;;;;;10.57;6.68;;;;;;;;;;5038390;28;20496;-82
2022/06/03 04:53:23;;;;;;;11.07;7.38;;;10.30;99.90;;;;;;5056467;28;20055;-82
2022/06/03 04:56:08;;;;;;;10.40;6.72;;;;;;;;;;5055378;28;20045;-82
2022/06/03 04:58:52;;;;;;;;;;;10.30;99.90;;;;;;5039113;28;20412;-83
2022/06/03 05:01:28;;;;;;;12.73;7.13;;;;;;;;;;5038435;28;19921;-84
2022/06/03 05:04:14;;;;;;;10.93;7.32;;;10.40;99.90;;;;;;5039478;28;20139;-83
2022/06/03 05:06:49;;;;;;;11.05;7.03;;;;;;;;;;5038820;28;20377;-85
2022/06/03 05:09:27;;;;;;;9.35;7.03;;;10.60;99.90;;;;;;5056283;28;20041;-84
2022/06/03 05:12:23;;;;;;;8.93;7.47;;;10.50;99.90;;;;;;5055059;28;20564;-84
2022/06/03 05:15:27;;;;;;;9.32;6.97;;;10.60;99.90;;;;;;5055900;28;20388;-85
2022/06/03 05:18:02;;;;;;;8.07;6.53;;;;;;;;;;5001417;28;20135;-84
2022/06/03 05:20:48;;;;;;;10.48;6.75;;;10.90;99.90;;;;;;5001414;28;20061;-85
2022/06/03 05:23:17;;;;;;;10.55;6.88;;;;;;;;;;5001892;28;20052;-83
2022/06/03 05:25:43;;;;;;;12.38;7.22;;;;;;;;;;5001329;28;20060;-83
2022/06/03 05:28:19;;;;;;;9.73;7.07;;;;;;;;;;5018319;28;20053;-82
2022/06/03 05:31:22;;;;;;;8.45;6.15;;;11.30;99.90;;;;;;5017747;28;20401;-84
2022/06/03 05:33:57;;;;;;;10.10;7.22;;;;;;;;;;5017250;28;20144;-81
2022/06/03 05:36:29;;;;;;;8.93;6.25;;;;;;;;;;5017363;28;20045;-82
2022/06/03 05:39:38;;;;;;;7.63;6.38;;;11.40;99.90;;;;;;5001899;28;20053;-85
2022/06/03 05:44:48;;;;;;;10.38;6.65;;;;;;;;;;4959787;28;20400;-81
2022/06/03 05:47:20;;;;;;;12.75;7.22;;;11.80;99.90;;;;;;4959587;28;20522;-83
2022/06/03 05:50:07;;;;;;;8.45;6.65;;;11.90;99.90;;;;;;4974824;28;20549;-82
2022/06/03 05:52:48;;;;;;;10.82;6.55;;;;;;;;;;4975922;28;20414;-82
2022/06/03 05:55:30;;;;;;;7.53;6.45;;;11.80;99.90;;;;;;4963204;28;20051;-84
2022/06/03 05:58:17;;;;;;;7.60;6.20;;;12.20;99.90;;;;;;4995164;28;20054;-81
2022/06/03 06:01:13;;;;;;;7.90;6.05;;;12.10;99.90;;;;;;4993346;28;20123;-85
2022/06/03 06:03:52;;;;;;;9.05;5.68;;;12.20;99.90;;;;;;4962361;28;20046;-84
2022/06/03 06:06:47;;;;;;;8.00;5.57;;;12.40;99.90;;;;;;4979174;28;20458;-82
2022/06/03 06:09:22;;;;;;;6.30;5.20;;;;;;;;;;4979534;28;20484;-82
2022/06/03 06:11:54;;;;;;;7.00;4.78;;;;;;;;;;4978719;28;20050;-80
2022/06/03 06:14:32;;;;;;;8.27;5.22;;;;;;;;;;4962330;28;20046;-82
2022/06/03 06:17:32;;;;;;;6.30;3.90;;;12.80;99.90;;;;;;4984961;28;20382;-81
2022/06/03 06:20:04;;;;;;;5.35;3.88;;;;;;;;;;5055085;28;20041;-81
2022/06/03 06:22:34;;;;;;;5.70;3.67;;;12.80;99.90;;;;;;5054632;28;20041;-86
2022/06/03 06:25:00;;;;;;;4.35;3.65;;;;;;;;;;5055267;28;20607;-85
2022/06/03 06:27:45;;;;;;;3.53;3.22;;;;;;;;;;5055694;28;20115;-85
2022/06/03 06:30:11;;;;;;;5.07;3.03;;;;;;;;;;5038111;28;20496;-86
2022/06/03 06:32:56;;;;;;;3.13;2.63;;;13.30;99.90;;;;;;5054882;28;20053;-86
2022/06/03 06:35:27;;;;;;;3.70;3.40;;;13.20;99.90;;;;;;5037958;28;20496;-82
2022/06/03 06:38:11;;;;;;;3.45;3.03;;;13.30;99.90;;;;;;5038058;28;20400;-84
2022/06/03 06:40:59;;;;;;;4.82;2.55;;;13.50;99.90;;;;;;5054487;28;20055;-83
2022/06/03 06:43:43;;;;;;;3.15;2.85;;;13.40;99.90;;;;;;5054430;28;20045;-86
2022/06/03 06:46:25;;;;;;;4.38;2.42;;;;;;;;;;5054510;28;20041;-84
2022/06/03 06:48:51;;;;;;;11.25;2.55;;;;;;;;;;5014182;28;20054;-82
2022/06/03 06:51:55;;;;;;;3.08;2.55;;;13.80;99.90;;;;;;5014459;28;20054;-82
2022/06/03 06:54:48;;;;;;;2.03;1.88;;;14.10;99.90;;;;;;4997125;28;20121;-85
2022/06/03 06:57:24;;;;;;;6.25;2.33;;;13.90;99.90;;;;;;4996810;28;20510;-83
2022/06/03 07:00:05;;;;;;;4.47;2.40;;;14.00;99.90;;;;;;4997062;28;20037;-83
2022/06/03 07:03:02;;;;;;;4.30;2.67;;;14.30;99.90;;;;;;4997060;28;20541;-84
2022/06/03 07:05:46;;;;;;;2.65;1.80;;;14.20;99.90;;;;;;4980894;28;20050;-84
2022/06/03 07:08:18;;;;;;;2.88;2.17;;;;;;;;;;4996981;28;20113;-85
2022/06/03 07:10:47;;;;;;;2.63;1.95;;;14.40;99.90;;;;;;4997287;28;20046;-84
2022/06/03 07:13:40;;;;;;;2.47;2.05;;;14.50;99.90;;;;;;4997021;28;20529;-82
2022/06/03 07:19:48;;;;;;;3.00;1.67;;;14.70;99.90;;;;;;5013850;28;20056;-84
2022/06/03 07:22:17;;;;;;;5.15;2.17;;;14.60;99.90;;;;;;5053532;28;20095;-83
2022/06/03 07:25:05;;;;;;;2.13;1.92;;;15.00;99.90;;;;;;5053723;28;20162;-84
2022/06/03 07:27:43;;;;;;;4.07;2.17;;;;;;;;;;5054600;28;20045;-84
2022/06/03 07:30:20;;;;;;;3.78;1.85;;;15.00;99.90;;;;;;5036747;28;20044;-83
2022/06/03 07:33:00;;;;;;;2.42;1.95;;;15.10;99.90;;;;;;5036680;28;20060;-84
2022/06/03 07:35:49;;;;;;;6.10;2.22;;;15.40;99.90;;;;;;5037573;28;20123;-81
2022/06/03 07:38:53;;;;;;;3.30;2.08;;;15.50;99.90;;;;;;5053215;28;20524;-83
2022/06/03 07:41:43;;;;;;;3.47;2.60;;;15.40;99.90;;;;;;5036325;28;20052;-81
2022/06/03 07:44:14;;;;;;;4.97;2.15;;;15.40;99.90;;;;;;5052647;28;20041;-81
2022/06/03 07:46:54;;;;;;;2.70;1.77;;;15.50;99.90;;;;;;5054020;28;20072;-81
2022/06/03 07:49:24;;;;;;;5.03;2.38;;;15.60;99.90;;;;;;5036032;28;20045;-81
2022/06/03 07:52:22;;;;;;;3.60;2.20;;;15.80;99.90;;;;;;5035683;28;20045;-81
2022/06/03 07:54:55;;;;;;;2.92;2.13;;;15.70;99.90;;;;;;4998830;28;20058;-81
2022/06/03 07:57:24;;;;;;;4.35;2.10;;;15.80;99.90;;;;;;5015398;28;20049;-81
2022/06/03 07:59:51;;;;;;;2.38;1.55;;;;;;;;;;5015073;28;20057;-82
2022/06/03 08:02:19;;;;;;;1.73;1.63;;;16.10;99.90;;;;;;4998327;28;20045;-82
2022/06/03 08:04:48;;;;;;;3.83;1.60;;;16.00;99.90;;;;;;5014993;28;20045;-82
2022/06/03 08:13:02;;;;;;;3.15;1.70;;;16.10;99.90;;;;;;5014770;28;20506;-81
2022/06/03 08:15:33;;;;;;;4.13;2.17;;;16.10;99.90;;;;;;5014956;28;20144;-81
2022/06/03 08:18:02;;;;;;;1.52;1.42;;;16.40;99.90;;;;;;5014576;28;20064;-81
2022/06/03 08:20:29;;;;;;;2.40;1.27;;;16.20;99.90;;;;;;5014611;28;20103;-81
2022/06/03 08:22:55;;;;;;;4.93;2.13;;;16.50;99.90;;;;;;5014484;28;20052;-81
2022/06/03 08:25:27;;;;;;;3.22;1.58;;;16.30;99.90;;;;;;5018681;28;20045;-82
2022/06/03 08:27:55;;;;;;;5.43;1.38;;;16.20;99.90;;;;;;5002023;28;20099;-83
2022/06/03 08:30:23;;;;;;;4.38;1.85;;;16.60;99.90;;;;;;5018763;28;20103;-83
2022/06/03 08:32:54;;;;;;;2.78;2.17;;;16.80;99.90;;;;;;5038719;28;20056;-83
2022/06/03 08:35:27;;;;;;;1.55;1.45;;;16.80;99.90;;;;;;5055838;28;20049;-83
2022/06/03 08:38:00;;;;;;;1.60;1.50;;;16.90;99.90;;;;;;5056095;28;20063;-83
2022/06/03 08:40:34;;;;;;;1.90;1.65;;;16.80;99.90;;;;;;5040442;28;20123;-82
2022/06/03 08:43:00;;;;;;;;;;;16.70;99.90;;;;;;5055402;28;20058;-83
2022/06/03 08:45:26;;;;;;;2.88;1.70;;;;;;;;;;5039009;28;19924;-82
2022/06/03 08:47:54;;;;;;;5.93;1.55;;;17.10;99.90;;;;;;5055566;28;20099;-83
2022/06/03 08:50:47;;;;;;;1.30;1.20;;;17.20;99.90;;;;;;5039522;28;20083;-82
2022/06/03 08:53:37;;;;;;;1.55;1.15;;;17.30;99.90;;;;;;5055775;28;20374;-83
2022/06/03 08:56:14;;;;;;;1.33;1.05;;;17.50;99.90;;;;;;5055477;28;20111;-82
2022/06/03 08:59:01;;;;;;;1.70;1.35;;;17.40;99.90;;;;;;5039185;28;20044;-81
2022/06/03 09:01:55;;;;;;;1.00;1.00;;;17.70;99.90;;;;;;5038747;28;20144;-82
2022/06/03 09:04:21;;;;;;;2.05;1.67;;;17.60;99.90;;;;;;5055483;28;20045;-82
2022/06/03 09:07:05;;;;;;;2.78;1.52;;;17.90;99.90;;;;;;5055475;28;20537;-82
2022/06/03 09:09:49;;;;;;;2.53;1.80;;;17.90;99.90;;;;;;5055151;28;20052;-81
2022/06/03 09:12:23;;;;;;;5.82;2.15;;;18.00;99.90;;;;;;5055041;28;20052;-83
2022/06/03 09:14:49;;;;;;;;;;;17.90;99.90;;;;;;5056047;28;20041;-81
2022/06/03 09:17:15;;;;;;;6.30;1.70;;;;;;;;;;5055060;28;19984;-81
2022/06/03 09:19:46;;;;;;;1.83;1.45;;;18.10;99.90;;;;;;5056492;28;20045;-81
2022/06/03 09:22:21;;;;;;;1.80;1.70;;;18.00;99.90;;;;;;5054748;28;20080;-81
2022/06/03 09:24:48;;;;;;;5.53;2.42;;;18.30;99.90;;;;;;5054622;28;20053;-81
2022/06/03 09:27:16;;;;;;;2.47;1.92;;;18.20;99.90;;;;;;5054991;28;20489;-82
2022/06/03 09:29:54;;;;;;;6.32;2.22;;;18.30;99.90;;;;;;5038093;28;20053;-81
2022/06/03 09:32:22;;;;;;;7.60;2.13;;;18.50;99.90;;;;;;5037823;28;20053;-83
2022/06/03 09:34:50;;;;;;;3.92;2.20;;;18.60;99.90;;;;;;5037925;28;20041;-83
2022/06/03 09:37:21;;;;;;;2.20;1.75;;;18.60;99.90;;;;;;5039052;28;20067;-83
2022/06/03 09:39:50;;;;;;;3.78;2.00;;;18.60;99.90;;;;;;5054558;28;20095;-82
2022/06/03 09:42:19;;;;;;;7.25;2.80;;;18.60;99.90;;;;;;5054463;28;20489;-82
2022/06/03 09:44:48;;;;;;;3.28;2.00;;;18.90;99.90;;;;;;5054574;28;20192;-82
2022/06/03 09:47:22;;;;;;;2.63;2.42;;;19.10;99.90;;;;;;5054448;28;20056;-82
2022/06/03 09:49:51;;;;;;;2.90;2.15;;;19.00;99.90;;;;;;5037756;28;20041;-81
2022/06/03 09:52:24;;;;;;;2.40;1.80;;;19.00;99.90;;;;;;5055279;28;20354;-81
2022/06/03 09:54:51;;;;;;;6.57;3.10;;;19.10;99.90;;;;;;5037419;28;20519;-83
2022/06/03 09:57:38;;;;;;;5.50;2.80;;;19.20;99.90;;;;;;5037521;28;20056;-83
2022/06/03 10:00:12;;;;;;;2.95;1.95;;;19.40;99.90;;;;;;5037811;28;20132;-83
2022/06/03 10:02:39;;;;;;;2.60;2.30;;;19.40;99.90;;;;;;5070989;28;20049;-82
2022/06/03 10:05:06;;;;;;;5.22;2.40;;;19.30;99.90;;;;;;5037720;28;20041;-83
2022/06/03 10:07:33;;;;;;;4.05;2.33;;;19.30;99.90;;;;;;5054125;28;20041;-84
2022/06/03 10:12:49;;;;;;;3.05;2.25;;;19.60;99.90;;;;;;5053913;28;20052;-83
2022/06/03 10:18:11;;;;;;;5.10;2.28;;;19.60;99.90;;;;;;5053892;28;20051;-85
2022/06/03 10:20:37;;;;;;;4.60;2.85;;;;;;;;;;5037599;28;20451;-85
2022/06/03 10:23:06;;;;;;;5.82;2.88;;;19.60;99.90;;;;;;5037157;28;20041;-85
2022/06/03 10:25:32;;;;;;;2.75;2.13;;;;;;;;;;5037027;28;20037;-84
2022/06/03 10:28:03;;;;;;;2.53;2.22;;;19.90;99.90;;;;;;5037374;28;20132;-85
2022/06/03 10:30:31;;;;;;;2.25;2.05;;;19.80;99.90;;;;;;5053890;28;20366;-82
2022/06/03 10:32:57;;;;;;;12.13;2.47;;;;;;;;;;5053483;28;20064;-84
2022/06/03 10:35:34;;;;;;;2.17;1.98;;;19.60;99.90;;;;;;5037435;28;20044;-83
2022/06/03 10:38:03;;;;;;;3.05;2.22;;;19.80;99.90;;;;;;5053799;28;20045;-82
2022/06/03 10:40:30;;;;;;;4.00;2.58;;;;;;;;;;5036938;28;20041;-82
2022/06/03 10:42:58;;;;;;;2.63;1.85;;;19.80;99.90;;;;;;5054196;28;20099;-82
2022/06/03 10:45:29;;;;;;;2.88;2.60;;;20.10;99.90;;;;;;5036746;28;20080;-83
2022/06/03 10:47:55;;;;;;;4.45;2.03;;;;;;;;;;5054733;28;20385;-82
2022/06/03 10:50:23;;;;;;;2.58;2.05;;;20.10;99.90;;;;;;5054816;28;20142;-84
2022/06/03 11:01:43;;;;;;;4.10;2.95;;;20.30;99.90;;;;;;5054139;28;20497;-82
2022/06/03 11:04:33;;;;;;;2.70;2.10;;;20.40;99.90;;;;;;5054481;28;20041;-83
2022/06/03 11:07:04;;;;;;;2.65;2.38;;;20.30;99.90;;;;;;5054462;28;20059;-84
2022/06/03 11:09:30;;;;;;;2.88;2.33;;;;;;;;;;5052964;28;20037;-85
2022/06/03 11:12:05;;;;;;;4.00;2.08;;;20.50;99.90;;;;;;5053122;28;20094;-83
2022/06/03 11:14:41;;;;;;;6.00;2.38;;;20.40;99.90;;;;;;5052966;28;20073;-84
2022/06/03 11:17:17;;;;;;;4.20;2.10;;;20.60;99.90;;;;;;5052999;28;20059;-84
2022/06/03 11:19:56;;;;;;;2.58;2.30;;;20.50;99.90;;;;;;5053238;28;20045;-83
2022/06/03 11:22:31;;;;;;;6.85;2.25;;;20.50;99.90;;;;;;5036009;28;20095;-84
2022/06/03 11:25:13;;;;;;;6.18;2.20;;;20.60;99.90;;;;;;5036429;28;20055;-83
2022/06/03 11:27:44;;;;;;;4.32;2.10;;;20.60;99.90;;;;;;5036176;28;20080;-84
2022/06/03 11:30:34;;;;;;;3.33;1.88;;;22.60;99.90;;;;;;5052379;28;20055;-83
2022/06/03 11:33:09;;;;;;;2.00;1.90;;;20.60;99.90;;;;;;5015014;28;20057;-84
2022/06/03 11:35:47;;;;;;;2.15;1.95;;;20.70;99.90;;;;;;5015366;28;20053;-83
2022/06/03 11:38:31;;;;;;;4.40;2.53;;;21.00;99.90;;;;;;5015273;28;20192;-85
2022/06/03 11:41:01;;;;;;;5.78;3.47;;;20.90;99.90;;;;;;5015362;28;20049;-84
2022/06/03 11:44:00;;;;;;;2.65;2.45;;;20.90;99.90;;;;;;5015010;28;20057;-82
2022/06/03 11:46:34;;;;;;;1.92;1.67;;;20.80;99.90;;;;;;4998418;28;20057;-84
2022/06/03 11:49:00;;;;;;;4.82;2.70;;;20.80;99.90;;;;;;5015019;28;20056;-82
2022/06/03 11:51:27;;;;;;;2.67;2.20;;;21.00;99.90;;;;;;5015398;28;20069;-85
2022/06/03 11:53:53;;;;;;;3.00;2.60;;;;;;;;;;5015771;28;20051;-85
2022/06/03 11:56:28;;;;;;;5.53;2.05;;;21.20;99.90;;;;;;5014802;28;20104;-85
2022/06/03 11:59:12;;;;;;;2.00;1.80;;;21.20;99.90;;;;;;5015152;28;20042;-83
2022/06/03 12:01:49;;;;;;;2.85;1.70;;;21.00;99.90;;;;;;5014614;28;20111;-86
2022/06/03 12:04:46;;;;;;;4.15;2.95;;;21.50;99.90;;;;;;5015229;28;20425;-86
2022/06/03 12:07:30;;;;;;;2.15;1.77;;;21.30;99.90;;;;;;5014731;28;20049;-83
2022/06/03 12:09:56;;;;;;;3.22;1.80;;;;;;;;;;5030452;28;20056;-82
2022/06/03 12:15:31;;;;;;;2.28;2.08;;;21.60;99.90;;;;;;5052599;28;20405;-82
2022/06/03 12:17:58;;;;;;;4.32;2.10;;;21.60;99.90;;;;;;5035351;28;20044;-81
2022/06/03 12:20:30;;;;;;;2.83;2.38;;;21.70;99.90;;;;;;5051808;28;20092;-81
2022/06/03 12:22:56;;;;;;;26.52;2.45;;;21.60;99.90;;;;;;5035119;28;20076;-84
2022/06/03 12:25:40;;;;;;;3.92;2.60;;;21.50;99.90;;;;;;5035124;28;20052;-83
2022/06/03 12:28:16;;;;;;;3.25;2.55;;;21.70;99.90;;;;;;5035178;28;20493;-83
2022/06/03 12:30:56;;;;;;;3.92;2.00;;;21.60;99.90;;;;;;5035125;28;20041;-82
2022/06/03 12:33:51;;;;;;;2.65;2.42;;;21.70;99.90;;;;;;5051575;28;20446;-84
2022/06/03 12:36:51;;;;;;;3.53;2.33;;;21.70;99.90;;;;;;5035078;28;20053;-82
2022/06/03 12:39:44;;;;;;;4.88;2.45;;;21.70;99.90;;;;;;5036410;28;20131;-84
2022/06/03 12:42:12;;;;;;;3.53;2.20;;;21.70;99.90;;;;;;5052758;28;20040;-85
2022/06/03 12:45:00;;;;;;;5.80;2.13;;;21.90;99.90;;;;;;5051907;28;20052;-81
2022/06/03 12:47:27;;;;;;;3.85;2.03;;;;;;;;;;5068400;28;20048;-83
2022/06/03 12:50:23;;;;;;;3.60;2.03;;;21.40;99.90;;;;;;5051546;28;20515;-85
2022/06/03 12:52:50;;;;;;;3.67;2.35;;;;;;;;;;5047325;28;20137;-85
2022/06/03 12:55:20;;;;;;;6.43;2.00;;;21.10;99.90;;;;;;5051592;28;20136;-82
2022/06/03 12:58:04;;;;;;;4.45;1.80;;;21.40;99.90;;;;;;5052335;28;20393;-85
2022/06/03 13:00:48;;;;;;;9.68;2.40;;;21.50;99.90;;;;;;5051437;28;20457;-83
2022/06/03 13:03:14;;;;;;;6.22;1.83;;;;;;;;;;5034869;28;20516;-85
2022/06/03 13:05:46;;;;;;;4.65;1.58;;;21.50;99.90;;;;;;5051398;28;20133;-84
2022/06/03 13:08:27;;;;;;;1.63;1.48;;;21.50;99.90;;;;;;5034815;28;20098;-85
2022/06/03 13:11:06;;;;;;;18.08;3.42;;;21.40;99.90;;;;;;5054229;28;20045;-84
2022/06/03 13:13:32;;;;;;;6.47;1.70;;;21.50;99.90;;;;;;5038770;28;20041;-82
2022/06/03 13:16:17;;;;;;;7.93;1.60;;;21.40;99.90;;;;;;5038945;28;20045;-83
2022/06/03 13:18:52;;;;;;;2.25;1.58;;;21.30;99.90;;;;;;5055029;28;20131;-83
2022/06/03 13:21:21;;;;;;;24.90;2.75;;;21.20;99.90;;;;;;5038429;28;20106;-84
2022/06/03 13:23:51;;;;;;;4.18;1.40;;;21.40;99.90;;;;;;5038190;28;20045;-87
2022/06/03 13:26:26;;;;;;;5.78;1.75;;;21.20;99.90;;;;;;5056234;28;20044;-85
2022/06/03 13:29:01;;;;;;;7.57;1.20;;;21.00;99.90;;;;;;5038524;28;20045;-85
2022/06/03 13:31:50;;;;;;;3.42;1.17;;;21.10;99.90;;;;;;5043521;28;20049;-87
2022/06/03 13:34:30;;;;;;;1.50;1.10;;;21.10;99.90;;;;;;5062828;28;20088;-86
2022/06/03 13:37:34;;;;;;;4.38;1.40;;;21.20;99.90;;;;;;5063541;28;20045;-84
2022/06/03 13:40:05;;;;;;;2.40;1.17;;;21.00;99.90;;;;;;5064013;28;20071;-84
2022/06/03 13:43:09;;;;;;;4.22;1.27;;;21.20;99.90;;;;;;5063693;28;20454;-85
2022/06/03 13:45:56;;;;;;;4.85;1.27;;;21.30;99.90;;;;;;5009552;28;20046;-86
2022/06/03 13:48:22;;;;;;;8.05;1.63;;;;;;;;;;5026105;28;20046;-85
2022/06/03 13:50:49;;;;;;;6.28;1.40;;;21.30;99.90;;;;;;5026210;28;20053;-86
2022/06/03 13:53:32;;;;;;;27.90;2.63;;;21.30;99.90;;;;;;4992749;28;20049;-85
2022/06/03 13:56:07;;;;;;;10.40;1.67;;;21.40;99.90;;;;;;5026007;28;20049;-86
2022/06/03 13:58:43;;;;;;;5.22;1.85;;;21.50;99.90;;;;;;4992467;28;20111;-88
2022/06/03 14:01:29;;;;;;;4.55;1.42;;;21.60;99.90;;;;;;5023853;28;20052;-85
2022/06/03 14:04:13;;;;;;;4.20;1.63;;;21.20;99.90;;;;;;5023012;28;20057;-82
2022/06/03 14:06:52;;;;;;;2.58;1.00;;;21.30;99.90;;;;;;5022672;28;20555;-83
2022/06/03 14:09:37;;;;;;;1.65;1.23;;;21.20;99.90;;;;;;5022509;28;20119;-83
2022/06/03 14:12:26;;;;;;;4.22;0.93;;;21.60;99.90;;;;;;5023553;28;20431;-84
2022/06/03 14:15:12;;;;;;;1.92;0.98;;;21.40;99.90;;;;;;5003894;28;20061;-84
2022/06/03 14:17:55;;;;;;;5.78;2.35;;;21.50;99.90;;;;;;5006876;28;20052;-84
2022/06/03 14:20:29;;;;;;;3.80;0.90;;;21.40;99.90;;;;;;5008488;28;20034;-82
2022/06/03 14:23:08;;;;;;;2.13;0.90;;;21.50;99.90;;;;;;5024224;28;20042;-83
2022/06/03 14:25:58;;;;;;;8.23;2.35;;;21.60;99.90;;;;;;5008492;28;20522;-84
2022/06/03 14:28:53;;;;;;;1.77;0.60;;;21.60;99.90;;;;;;5040053;28;20057;-83
2022/06/03 14:31:46;;;;;;;1.30;0.80;;;21.60;99.90;;;;;;5010241;28;20061;-85
2022/06/03 14:34:18;;;;;;;1.52;0.88;;;21.50;99.90;;;;;;5009675;28;20209;-84
2022/06/03 14:36:47;;;;;;;0.77;0.70;;;21.40;99.90;;;;;;5025438;28;20049;-85
2022/06/03 14:39:22;;;;;;;9.95;1.63;;;21.50;99.90;;;;;;5024393;28;20053;-84
2022/06/03 14:41:53;;;;;;;2.47;1.10;;;21.30;99.90;;;;;;5008856;28;20057;-83
2022/06/03 14:44:25;;;;;;;0.73;0.73;;;21.30;99.90;;;;;;5043251;28;20095;-82
2022/06/03 14:47:03;;;;;;;2.03;1.00;;;21.00;99.90;;;;;;5059120;28;20049;-85
2022/06/03 14:49:50;;;;;;;3.17;0.70;;;21.10;99.90;;;;;;5044648;28;20045;-86
2022/06/03 14:52:29;;;;;;;3.17;1.20;;;21.30;99.90;;;;;;5027503;28;20137;-85
2022/06/03 14:55:23;;;;;;;4.93;1.10;;;21.00;99.90;;;;;;5043823;28;20051;-86
2022/06/03 14:57:56;;;;;;;;;;;21.50;99.90;;;;;;5029177;28;20094;-86